Time;durP1;ratioP1;P1;durP2;ratioP2;P2;SDS_P1;SDS_P2;PMS_P1;PMS_P2;Temp;Humidity;BMP_temperature;BMP_pressure;BME280_temperature;BME280_humidity;BME280_pressure;Samples;Min_cycle;Max_cycle;Signal;HPM_P1;HPM_P2
2023/10/20 00:00:16;;;;;;;;;;;8.80;99.90;;;;;;5111190;28;19957;-32
2023/10/20 00:02:43;;;;;;;;;;;8.80;99.90;;;;;;5094194;28;19950;-32
2023/10/20 00:05:10;;;;;;;;;;;8.80;99.90;;;;;;5093703;28;19963;-31
2023/10/20 00:07:37;;;;;;;;;;;8.80;99.90;;;;;;5111979;28;20004;-33
2023/10/20 00:10:05;;;;;;;;;;;8.80;99.90;;;;;;5092530;28;19967;-32
2023/10/20 00:12:31;;;;;;;;;;;8.80;99.90;;;;;;5109886;28;20367;-32
2023/10/20 00:14:58;;;;;;;;;;;8.80;99.90;;;;;;5091623;28;19943;-32
2023/10/20 00:17:25;;;;;;;;;;;8.80;99.90;;;;;;5093857;28;19923;-32
2023/10/20 00:19:51;;;;;;;;;;;8.80;99.90;;;;;;5092854;28;19928;-33
2023/10/20 00:22:18;;;;;;;;;;;8.80;99.90;;;;;;5112439;28;20359;-32
2023/10/20 00:24:46;;;;;;;;;;;8.80;99.90;;;;;;5111191;28;19954;-33
2023/10/20 00:27:13;;;;;;;;;;;8.80;99.90;;;;;;5092963;28;19969;-32
2023/10/20 00:29:39;;;;;;;;;;;8.70;99.90;;;;;;5093310;28;19962;-31
2023/10/20 00:32:06;;;;;;;;;;;8.70;99.90;;;;;;5093190;28;19977;-31
2023/10/20 00:34:33;;;;;;;;;;;8.80;99.90;;;;;;5111477;28;19923;-33
2023/10/20 00:37:00;;;;;;;;;;;8.70;99.90;;;;;;5093486;28;19947;-32
2023/10/20 00:39:26;;;;;;;;;;;8.70;99.90;;;;;;5093974;28;19965;-31
2023/10/20 00:41:55;;;;;;;;;;;8.70;99.90;;;;;;5092562;28;19938;-33
2023/10/20 00:44:22;;;;;;;;;;;8.70;99.90;;;;;;5092662;28;20017;-33
2023/10/20 00:46:49;;;;;;;;;;;8.70;99.90;;;;;;5094358;28;19965;-30
2023/10/20 00:49:16;;;;;;;;;;;8.70;99.90;;;;;;5093564;28;19942;-32
2023/10/20 00:51:42;;;;;;;;;;;8.70;99.90;;;;;;5093832;28;20391;-31
2023/10/20 00:54:13;;;;;;;;;;;8.70;99.90;;;;;;5096678;28;19942;-31
2023/10/20 00:56:39;;;;;;;;;;;8.70;99.90;;;;;;5115539;28;19966;-31
2023/10/20 00:59:08;;;;;;;;;;;8.60;99.90;;;;;;5097680;28;19991;-31
2023/10/20 01:01:35;;;;;;;;;;;8.60;99.90;;;;;;5097228;28;20011;-32
2023/10/20 01:04:01;;;;;;;;;;;8.60;99.90;;;;;;5096271;28;19942;-32
2023/10/20 01:06:28;;;;;;;;;;;8.60;99.90;;;;;;5096726;28;20015;-32
2023/10/20 01:08:55;;;;;;;;;;;8.60;99.90;;;;;;5115191;28;19961;-32
2023/10/20 01:11:22;;;;;;;;;;;8.50;99.90;;;;;;5096890;28;19934;-31
2023/10/20 01:13:48;;;;;;;;;;;8.50;99.90;;;;;;5115469;28;20000;-31
2023/10/20 01:16:16;;;;;;;;;;;8.60;99.90;;;;;;5115573;28;19958;-31
2023/10/20 01:18:43;;;;;;;;;;;8.60;99.90;;;;;;5113105;27;19977;-32
2023/10/20 01:21:10;;;;;;;;;;;8.60;99.90;;;;;;5096945;28;19964;-32
2023/10/20 01:23:37;;;;;;;;;;;8.60;99.90;;;;;;5097380;28;19938;-32
2023/10/20 01:26:05;;;;;;;;;;;8.60;99.90;;;;;;5115207;28;19938;-32
2023/10/20 01:28:32;;;;;;;;;;;8.60;99.90;;;;;;5096245;28;19969;-32
2023/10/20 01:30:58;;;;;;;;;;;8.60;99.90;;;;;;5096649;28;19976;-31
2023/10/20 01:33:25;;;;;;;;;;;8.60;99.90;;;;;;5114348;28;20301;-33
2023/10/20 01:35:52;;;;;;;;;;;8.50;99.90;;;;;;5096922;28;19928;-32
2023/10/20 01:38:18;;;;;;;;;;;8.50;99.90;;;;;;5097473;28;19938;-32
2023/10/20 01:40:45;;;;;;;;;;;8.50;99.90;;;;;;5114116;28;19969;-33
2023/10/20 01:43:13;;;;;;;;;;;8.50;99.90;;;;;;5113404;27;19924;-32
2023/10/20 01:45:40;;;;;;;;;;;8.50;99.90;;;;;;5113936;28;20015;-32
2023/10/20 01:48:07;;;;;;;;;;;8.50;99.90;;;;;;5114653;28;20011;-32
2023/10/20 01:50:34;;;;;;;;;;;8.50;99.90;;;;;;5097511;28;19977;-32
2023/10/20 01:53:00;;;;;;;;;;;8.50;99.90;;;;;;5094544;28;19965;-32
2023/10/20 01:55:28;;;;;;;;;;;8.50;99.90;;;;;;5096291;28;19924;-31
2023/10/20 01:57:55;;;;;;;;;;;8.50;99.90;;;;;;5112180;28;19943;-32
2023/10/20 02:00:23;;;;;;;;;;;8.50;99.90;;;;;;5097126;28;19932;-32
2023/10/20 02:02:49;;;;;;;;;;;8.50;99.90;;;;;;5115558;28;19965;-32
2023/10/20 02:05:16;;;;;;;;;;;8.50;99.90;;;;;;5094804;28;19928;-31
2023/10/20 02:07:43;;;;;;;;;;;8.50;99.90;;;;;;5095775;28;19976;-32
2023/10/20 02:10:10;;;;;;;;;;;8.50;99.90;;;;;;5096003;28;20293;-32
2023/10/20 02:12:37;;;;;;;;;;;8.40;99.90;;;;;;5085925;28;19958;-33
2023/10/20 02:15:04;;;;;;;;;;;8.50;99.90;;;;;;5115079;28;19972;-31
2023/10/20 02:17:32;;;;;;;;;;;8.50;99.90;;;;;;5095614;28;19930;-33
2023/10/20 02:19:59;;;;;;;;;;;8.50;99.90;;;;;;5113786;28;19961;-32
2023/10/20 02:22:26;;;;;;;;;;;8.40;99.90;;;;;;5093916;28;19992;-34
2023/10/20 02:24:53;;;;;;;;;;;8.50;99.90;;;;;;5113986;28;20022;-32
2023/10/20 02:27:19;;;;;;;;;;;8.50;99.90;;;;;;5096715;28;20414;-31
2023/10/20 02:29:46;;;;;;;;;;;8.50;99.90;;;;;;5095808;28;19934;-32
2023/10/20 02:32:13;;;;;;;;;;;8.50;99.90;;;;;;5111658;27;19923;-32
2023/10/20 02:34:41;;;;;;;;;;;8.40;99.90;;;;;;5094875;28;19943;-32
2023/10/20 02:37:11;;;;;;;;;;;8.50;99.90;;;;;;5113516;28;19934;-32
2023/10/20 02:39:38;;;;;;;;;;;8.40;99.90;;;;;;5094234;28;19923;-34
2023/10/20 02:42:05;;;;;;;;;;;8.40;99.90;;;;;;5091474;28;20030;-32
2023/10/20 02:44:31;;;;;;;;;;;8.40;99.90;;;;;;5091783;28;19993;-32
2023/10/20 02:46:58;;;;;;;;;;;8.40;99.90;;;;;;5094950;28;19976;-32
2023/10/20 02:49:25;;;;;;;;;;;8.50;99.90;;;;;;5113157;28;20413;-32
2023/10/20 02:51:53;;;;;;;;;;;8.50;99.90;;;;;;5112852;27;19993;-32
2023/10/20 02:54:20;;;;;;;;;;;8.50;99.90;;;;;;5096208;28;19968;-31
2023/10/20 02:56:46;;;;;;;;;;;8.50;99.90;;;;;;5094739;28;19931;-31
2023/10/20 02:59:13;;;;;;;;;;;8.40;99.90;;;;;;5095257;28;20371;-32
2023/10/20 03:01:40;;;;;;;;;;;8.40;99.90;;;;;;5094849;28;20414;-31
2023/10/20 03:04:07;;;;;;;;;;;8.50;99.90;;;;;;5094685;28;19938;-32
2023/10/20 03:06:33;;;;;;;;;;;8.40;99.90;;;;;;5096211;28;19996;-32
2023/10/20 03:09:01;;;;;;;;;;;8.40;99.90;;;;;;5111196;28;19969;-33
2023/10/20 03:11:28;;;;;;;;;;;8.40;99.90;;;;;;5094653;28;19958;-31
2023/10/20 03:13:55;;;;;;;;;;;8.40;99.90;;;;;;5094611;28;19958;-33
2023/10/20 03:16:21;;;;;;;;;;;8.40;99.90;;;;;;5093418;28;20368;-32
2023/10/20 03:18:48;;;;;;;;;;;8.40;99.90;;;;;;5095692;28;19947;-33
2023/10/20 03:21:15;;;;;;;;;;;8.40;99.90;;;;;;5094616;28;19942;-34
2023/10/20 03:23:43;;;;;;;;;;;8.40;99.90;;;;;;5112642;28;19931;-32
2023/10/20 03:26:12;;;;;;;;;;;8.40;99.90;;;;;;5093835;28;19942;-31
2023/10/20 03:28:39;;;;;;;;;;;8.40;99.90;;;;;;5088440;28;19995;-32
2023/10/20 03:31:06;;;;;;;;;;;8.40;99.90;;;;;;5110470;28;20299;-33
2023/10/20 03:33:33;;;;;;;;;;;8.40;99.90;;;;;;5094288;28;19923;-33
2023/10/20 03:36:01;;;;;;;;;;;8.30;99.90;;;;;;5094752;28;20417;-33
2023/10/20 03:38:27;;;;;;;;;;;8.40;99.90;;;;;;5112020;28;19924;-33
2023/10/20 03:40:54;;;;;;;;;;;8.40;99.90;;;;;;5111770;28;19924;-32
2023/10/20 03:43:24;;;;;;;;;;;8.30;99.90;;;;;;5095062;28;19962;-33
2023/10/20 03:45:51;;;;;;;;;;;8.40;99.90;;;;;;5112826;28;19947;-32
2023/10/20 03:48:19;;;;;;;;;;;8.40;99.90;;;;;;5073825;28;19938;-33
2023/10/20 03:50:46;;;;;;;;;;;8.30;99.90;;;;;;5091908;28;19931;-32
2023/10/20 03:53:18;;;;;;;;;;;8.30;99.90;;;;;;5073058;28;19969;-33
2023/10/20 03:55:45;;;;;;;;;;;8.30;99.90;;;;;;5092036;28;19980;-33
2023/10/20 03:58:11;;;;;;;;;;;8.30;99.90;;;;;;5088185;28;20261;-32
2023/10/20 04:00:41;;;;;;;;;;;8.30;99.90;;;;;;5076261;28;20302;-32
2023/10/20 04:03:08;;;;;;;;;;;8.30;99.90;;;;;;5091086;28;19924;-32
2023/10/20 04:05:35;;;;;;;;;;;8.30;99.90;;;;;;5089991;28;20050;-34
2023/10/20 04:08:05;;;;;;;;;;;8.30;99.90;;;;;;5074011;28;19932;-32
2023/10/20 04:10:32;;;;;;;;;;;8.30;99.90;;;;;;5074971;28;19924;-33
2023/10/20 04:13:01;;;;;;;;;;;8.30;99.90;;;;;;5073448;28;19931;-32
2023/10/20 04:15:32;;;;;;;;;;;8.20;99.90;;;;;;5073594;28;20292;-32
2023/10/20 04:18:00;;;;;;;;;;;8.30;99.90;;;;;;5089230;28;19939;-32
2023/10/20 04:20:27;;;;;;;;;;;8.30;99.90;;;;;;5077648;28;19962;-32
2023/10/20 04:22:54;;;;;;;;;;;8.30;99.90;;;;;;5091165;28;20015;-32
2023/10/20 04:25:21;;;;;;;;;;;8.30;99.90;;;;;;5092027;28;19931;-32
2023/10/20 04:27:51;;;;;;;;;;;8.20;99.90;;;;;;5082551;28;19935;-33
2023/10/20 04:47:36;;;;;;;;;;;8.20;99.90;;;;;;5076902;28;19928;-31
2023/10/20 04:50:17;;;;;;;;;;;8.20;99.90;;;;;;5109119;28;19934;-33
2023/10/20 04:52:58;;;;;;;;;;;8.20;99.90;;;;;;5090982;28;19927;-32
2023/10/20 04:58:16;;;;;;;;;;;8.30;99.90;;;;;;5106528;28;19938;-33
2023/10/20 05:00:43;;;;;;;;;;;8.20;99.90;;;;;;5100933;28;19924;-33
2023/10/20 05:03:22;;;;;;;;;;;8.20;99.90;;;;;;5109450;28;19946;-33
2023/10/20 05:05:58;;;;;;;;;;;8.20;99.90;;;;;;5107597;28;20497;-32
2023/10/20 05:08:25;;;;;;;;;;;8.20;99.90;;;;;;5099567;28;19958;-32
2023/10/20 05:10:53;;;;;;;;;;;8.10;99.90;;;;;;5111662;28;19945;-31
2023/10/20 05:13:20;;;;;;;;;;;8.20;99.90;;;;;;5106605;28;19970;-31
2023/10/20 05:15:47;;;;;;;;;;;8.20;99.90;;;;;;5106905;28;20052;-32
2023/10/20 05:18:14;;;;;;;;;;;8.20;99.90;;;;;;5090588;28;20190;-31
2023/10/20 05:20:41;;;;;;;;;;;8.20;99.90;;;;;;5109186;28;19924;-31
2023/10/20 05:23:10;;;;;;;;;;;8.20;99.90;;;;;;5087162;28;20306;-32
2023/10/20 05:25:37;;;;;;;;;;;8.20;99.90;;;;;;5106545;28;20068;-32
2023/10/20 05:28:05;;;;;;;;;;;8.20;99.90;;;;;;5108897;28;19995;-32
2023/10/20 05:30:33;;;;;;;;;;;8.20;99.90;;;;;;5091439;28;19924;-32
2023/10/20 05:32:59;;;;;;;;;;;8.20;99.90;;;;;;5085321;28;19924;-32
2023/10/20 05:35:26;;;;;;;;;;;8.10;99.90;;;;;;5104964;28;20777;-31
2023/10/20 05:37:53;;;;;;;;;;;8.20;99.90;;;;;;5109040;28;20397;-31
2023/10/20 05:40:21;;;;;;;;;;;8.10;99.90;;;;;;5107936;28;20289;-31
2023/10/20 05:42:47;;;;;;;;;;;8.10;99.90;;;;;;5087255;28;20019;-33
2023/10/20 05:45:17;;;;;;;;;;;8.10;99.90;;;;;;5087226;28;19987;-32
2023/10/20 05:47:43;;;;;;;;;;;8.10;99.90;;;;;;5078665;28;20492;-31
2023/10/20 05:50:11;;;;;;;;;;;8.10;99.90;;;;;;5091926;28;19924;-32
2023/10/20 05:52:39;;;;;;;;;;;8.10;99.90;;;;;;5100527;28;20302;-31
2023/10/20 05:55:06;;;;;;;;;;;8.10;99.90;;;;;;5078140;28;19979;-31
2023/10/20 05:57:34;;;;;;;;;;;8.10;99.90;;;;;;5094033;28;19976;-31
2023/10/20 06:00:03;;;;;;;;;;;8.20;99.90;;;;;;5091695;28;20008;-31
2023/10/20 06:02:31;;;;;;;;;;;8.10;99.90;;;;;;5085518;28;19924;-33
2023/10/20 06:04:58;;;;;;;;;;;8.10;99.90;;;;;;5078589;28;19924;-31
2023/10/20 06:07:24;;;;;;;;;;;8.10;99.90;;;;;;5091731;28;19958;-32
2023/10/20 06:09:51;;;;;;;;;;;8.10;99.90;;;;;;5086293;28;20034;-32
2023/10/20 06:12:18;;;;;;;;;;;8.10;99.90;;;;;;5084668;28;19938;-32
2023/10/20 06:14:47;;;;;;;;;;;8.10;99.90;;;;;;5070649;28;20096;-32
2023/10/20 06:17:17;;;;;;;;;;;8.20;99.90;;;;;;5075054;28;19953;-31
2023/10/20 06:19:44;;;;;;;;;;;8.10;99.90;;;;;;5055407;28;20002;-32
2023/10/20 06:22:11;;;;;;;;;;;8.10;99.90;;;;;;5078349;28;19939;-32
2023/10/20 06:24:38;;;;;;;;;;;8.10;99.90;;;;;;5078748;28;19928;-31
2023/10/20 06:27:05;;;;;;;;;;;8.10;99.90;;;;;;5082534;28;19958;-33
2023/10/20 06:29:43;;;;;;;;;;;8.10;99.90;;;;;;5090709;28;20455;-32
2023/10/20 06:32:22;;;;;;;;;;;8.10;99.90;;;;;;5095906;28;19924;-31
2023/10/20 06:34:49;;;;;;;;;;;8.00;99.90;;;;;;5071023;28;19965;-32
2023/10/20 06:37:24;;;;;;;;;;;8.10;99.90;;;;;;5074924;28;19928;-33
2023/10/20 06:39:50;;;;;;;;;;;8.00;99.90;;;;;;5074895;28;19998;-32
2023/10/20 06:42:17;;;;;;;;;;;8.00;99.90;;;;;;5091916;28;19924;-33
2023/10/20 06:44:44;;;;;;;;;;;8.10;99.90;;;;;;5092035;28;19942;-32
2023/10/20 06:47:12;;;;;;;;;;;8.10;99.90;;;;;;5091666;28;19985;-31
2023/10/20 06:49:39;;;;;;;;;;;8.10;99.90;;;;;;5072690;28;19966;-33
2023/10/20 06:52:05;;;;;;;;;;;8.00;99.90;;;;;;5072672;28;19944;-32
2023/10/20 06:54:32;;;;;;;;;;;8.10;99.90;;;;;;5074014;28;20052;-32
2023/10/20 06:56:59;;;;;;;;;;;8.00;99.90;;;;;;5074196;28;19998;-32
2023/10/20 06:59:25;;;;;;;;;;;8.00;99.90;;;;;;5073968;28;20025;-32
2023/10/20 07:01:56;;;;;;;;;;;8.00;99.90;;;;;;5091375;28;19985;-32
2023/10/20 07:04:24;;;;;;;;;;;8.00;99.90;;;;;;5074324;28;20037;-32
2023/10/20 07:06:51;;;;;;;;;;;8.00;99.90;;;;;;5073815;28;19963;-32
2023/10/20 07:09:17;;;;;;;;;;;8.00;99.90;;;;;;5074037;28;19969;-32
2023/10/20 07:11:44;;;;;;;;;;;8.00;99.90;;;;;;5091128;28;20071;-31
2023/10/20 07:14:11;;;;;;;;;;;8.00;99.90;;;;;;5073668;28;20032;-32
2023/10/20 07:16:37;;;;;;;;;;;8.00;99.90;;;;;;5090860;28;19962;-33
2023/10/20 07:19:04;;;;;;;;;;;8.00;99.90;;;;;;5091041;28;19928;-32
2023/10/20 07:21:32;;;;;;;;;;;8.00;99.90;;;;;;5080587;28;19965;-32
2023/10/20 07:23:59;;;;;;;;;;;8.00;99.90;;;;;;5071842;28;19936;-32
2023/10/20 07:26:26;;;;;;;;;;;8.00;99.90;;;;;;5071823;28;20377;-32
2023/10/20 07:28:53;;;;;;;;;;;8.00;99.90;;;;;;5091375;28;19938;-32
2023/10/20 07:31:21;;;;;;;;;;;8.00;99.90;;;;;;5089439;28;19968;-32
2023/10/20 07:33:49;;;;;;;;;;;8.00;99.90;;;;;;5086789;28;19956;-32
2023/10/20 07:36:15;;;;;;;;;;;8.00;99.90;;;;;;5071551;28;19939;-32
2023/10/20 07:38:44;;;;;;;;;;;8.00;99.90;;;;;;5072088;28;19924;-32
2023/10/20 07:41:11;;;;;;;;;;;8.00;99.90;;;;;;5089892;28;20334;-32
2023/10/20 07:43:38;;;;;;;;;;;8.10;99.90;;;;;;5072182;28;19939;-32
2023/10/20 07:46:05;;;;;;;;;;;8.00;99.90;;;;;;5089874;28;20372;-33
2023/10/20 07:48:32;;;;;;;;;;;8.00;99.90;;;;;;5070383;28;19943;-34
2023/10/20 07:51:00;;;;;;;;;;;8.00;99.90;;;;;;5110399;28;19924;-32
2023/10/20 07:53:26;;;;;;;;;;;8.00;99.90;;;;;;5092205;28;20456;-31
2023/10/20 07:55:54;;;;;;;;;;;8.00;99.90;;;;;;5093119;28;19923;-33
2023/10/20 07:58:21;;;;;;;;;;;8.10;99.90;;;;;;5110044;28;19938;-32
2023/10/20 08:00:47;;;;;;;;;;;8.10;99.90;;;;;;5109985;28;19992;-32
2023/10/20 08:03:14;;;;;;;;;;;8.10;99.90;;;;;;5091535;28;20048;-32
2023/10/20 08:05:41;;;;;;;;;;;8.00;99.90;;;;;;5093009;28;20015;-33
2023/10/20 08:08:07;;;;;;;;;;;8.00;99.90;;;;;;5089592;28;19987;-32
2023/10/20 08:10:34;;;;;;;;;;;8.10;99.90;;;;;;5097602;28;20376;-32
2023/10/20 08:13:02;;;;;;;;;;;8.10;99.90;;;;;;5103548;28;20499;-32
2023/10/20 08:15:29;;;;;;;;;;;8.10;99.90;;;;;;5107416;28;20495;-33
2023/10/20 08:17:58;;;;;;;;;;;8.10;99.90;;;;;;5110546;28;19935;-32
2023/10/20 08:20:25;;;;;;;;;;;8.10;99.90;;;;;;5107655;28;19999;-34
2023/10/20 08:22:52;;;;;;;;;;;8.10;99.90;;;;;;5084075;28;20429;-35
2023/10/20 08:25:18;;;;;;;;;;;8.10;99.90;;;;;;5082592;28;19992;-32
2023/10/20 08:27:46;;;;;;;;;;;8.10;99.90;;;;;;5072840;28;20329;-33
2023/10/20 08:30:15;;;;;;;;;;;8.10;99.90;;;;;;5081958;28;19999;-32
2023/10/20 08:32:42;;;;;;;;;;;8.10;99.90;;;;;;5103685;28;19924;-32
2023/10/20 08:35:08;;;;;;;;;;;8.10;99.90;;;;;;5084184;28;20019;-35
2023/10/20 08:37:35;;;;;;;;;;;8.10;99.90;;;;;;5081685;28;20483;-34
2023/10/20 08:40:02;;;;;;;;;;;8.10;99.90;;;;;;5087439;28;20351;-32
2023/10/20 08:42:29;;;;;;;;;;;8.20;99.90;;;;;;5106049;28;20311;-32
2023/10/20 08:44:56;;;;;;;;;;;8.10;99.90;;;;;;5105689;28;19966;-34
2023/10/20 08:47:24;;;;;;;;;;;8.10;99.90;;;;;;5087355;28;19977;-35
2023/10/20 08:49:51;;;;;;;;;;;8.10;99.90;;;;;;5110340;28;19938;-34
2023/10/20 08:52:17;;;;;;;;;;;8.00;99.90;;;;;;5109597;28;20027;-33
2023/10/20 08:54:44;;;;;;;;;;;8.00;99.90;;;;;;5109588;28;19960;-33
2023/10/20 08:57:11;;;;;;;;;;;8.00;99.90;;;;;;5089344;28;19957;-33
2023/10/20 08:59:37;;;;;;;;;;;8.00;99.90;;;;;;5091382;28;19923;-32
2023/10/20 09:02:05;;;;;;;;;;;8.00;99.90;;;;;;5108634;28;20335;-34
2023/10/20 09:04:33;;;;;;;;;;;8.00;99.90;;;;;;5110169;28;20007;-33
2023/10/20 09:07:00;;;;;;;;;;;8.00;99.90;;;;;;5108803;28;19954;-33
2023/10/20 09:09:27;;;;;;;;;;;8.00;99.90;;;;;;5091668;28;19995;-32
2023/10/20 09:11:54;;;;;;;;;;;8.00;99.90;;;;;;5110318;28;19924;-34
2023/10/20 09:14:21;;;;;;;;;;;8.00;99.90;;;;;;5111488;28;19923;-33
2023/10/20 09:16:48;;;;;;;;;;;8.00;99.90;;;;;;5112386;28;19979;-35
2023/10/20 09:19:14;;;;;;;;;;;7.90;99.90;;;;;;5096040;28;19980;-32
2023/10/20 09:21:45;;;;;;;;;;;7.90;99.90;;;;;;5115014;28;19942;-32
2023/10/20 09:24:12;;;;;;;;;;;7.90;99.90;;;;;;5113929;28;19931;-32
2023/10/20 09:26:39;;;;;;;;;;;7.90;99.90;;;;;;5095840;28;19977;-32
2023/10/20 09:29:06;;;;;;;;;;;7.90;99.90;;;;;;5093521;28;19972;-32
2023/10/20 09:31:33;;;;;;;;;;;7.90;99.90;;;;;;5112813;28;20011;-33
2023/10/20 09:33:59;;;;;;;;;;;7.90;99.90;;;;;;5108488;28;19999;-33
2023/10/20 09:36:27;;;;;;;;;;;7.90;99.90;;;;;;5112913;28;19934;-32
2023/10/20 09:38:55;;;;;;;;;;;7.90;99.90;;;;;;5111469;28;19960;-32
2023/10/20 09:41:22;;;;;;;;;;;7.90;99.90;;;;;;5080091;28;19994;-33
2023/10/20 09:43:51;;;;;;;;;;;7.80;99.90;;;;;;5113087;28;19949;-33
2023/10/20 09:46:21;;;;;;;;;;;7.80;99.90;;;;;;5094401;28;19959;-31
2023/10/20 09:48:49;;;;;;;;;;;7.80;99.90;;;;;;5093811;28;19924;-32
2023/10/20 09:51:16;;;;;;;;;;;7.80;99.90;;;;;;5113490;28;19946;-31
2023/10/20 09:53:42;;;;;;;;;;;7.80;99.90;;;;;;5095074;28;19942;-33
2023/10/20 09:56:10;;;;;;;;;;;7.90;99.90;;;;;;5095569;28;20362;-32
2023/10/20 09:58:37;;;;;;;;;;;7.80;99.90;;;;;;5110195;28;19935;-32
2023/10/20 10:01:04;;;;;;;;;;;7.80;99.90;;;;;;5095419;28;19946;-33
2023/10/20 10:03:37;;;;;;;;;;;7.80;99.90;;;;;;5079808;28;19934;-32
2023/10/20 10:06:05;;;;;;;;;;;7.80;99.90;;;;;;5108842;28;19992;-33
2023/10/20 10:08:31;;;;;;;;;;;7.80;99.90;;;;;;5104095;28;19924;-32
2023/10/20 10:10:59;;;;;;;;;;;7.80;99.90;;;;;;5106578;28;19938;-32
2023/10/20 10:13:43;;;;;;;;;;;7.80;99.90;;;;;;5107870;28;19977;-33
2023/10/20 10:16:13;;;;;;;;;;;7.80;99.90;;;;;;5106475;28;20488;-32
2023/10/20 10:18:46;;;;;;;;;;;7.80;99.90;;;;;;5072376;28;20250;-31
2023/10/20 10:21:23;;;;;;;;;;;7.80;99.90;;;;;;5093055;28;19946;-32
2023/10/20 10:24:05;;;;;;;;;;;7.80;99.90;;;;;;5088178;28;19959;-32
2023/10/20 10:26:31;;;;;;;;;;;7.70;99.90;;;;;;5107330;28;20059;-33
2023/10/20 10:28:58;;;;;;;;;;;7.80;99.90;;;;;;5110195;28;20425;-32
2023/10/20 10:31:34;;;;;;;;;;;7.70;99.90;;;;;;5095341;28;19993;-31
2023/10/20 10:34:04;;;;;;;;;;;7.80;99.90;;;;;;5107813;28;19972;-32
2023/10/20 10:36:30;;;;;;;;;;;7.80;99.90;;;;;;5097716;28;20221;-32
2023/10/20 10:38:58;;;;;;;;;;;7.80;99.90;;;;;;5107363;28;19984;-33
2023/10/20 10:41:25;;;;;;;;;;;7.70;99.90;;;;;;5093619;28;20405;-33
2023/10/20 10:43:53;;;;;;;;;;;7.70;99.90;;;;;;5108260;28;20308;-33
2023/10/20 10:46:20;;;;;;;;;;;7.70;99.90;;;;;;5107896;28;19954;-33
2023/10/20 10:48:48;;;;;;;;;;;7.70;99.90;;;;;;5077707;28;19965;-32
2023/10/20 10:51:15;;;;;;;;;;;7.70;99.90;;;;;;5076699;28;20289;-33
2023/10/20 10:53:43;;;;;;;;;;;7.70;99.90;;;;;;5091299;28;20441;-34
2023/10/20 10:56:10;;;;;;;;;;;7.70;99.90;;;;;;5067344;28;19961;-32
2023/10/20 10:58:36;;;;;;;;;;;7.70;99.90;;;;;;5074946;28;19924;-33
2023/10/20 11:01:03;;;;;;;;;;;7.70;99.90;;;;;;5076447;28;19989;-33
2023/10/20 11:03:30;;;;;;;;;;;7.70;99.90;;;;;;5102035;28;20156;-33
2023/10/20 11:05:58;;;;;;;;;;;7.70;99.90;;;;;;5097059;28;19945;-33
2023/10/20 11:08:24;;;;;;;;;;;7.70;99.90;;;;;;5075713;28;20448;-33
2023/10/20 11:10:51;;;;;;;;;;;7.70;99.90;;;;;;5092699;28;20076;-33
2023/10/20 11:13:19;;;;;;;;;;;7.70;99.90;;;;;;5074677;28;19982;-33
2023/10/20 11:15:46;;;;;;;;;;;7.70;99.90;;;;;;5092850;28;19928;-33
2023/10/20 11:18:14;;;;;;;;;;;7.70;99.90;;;;;;5061657;28;20388;-32
2023/10/20 11:20:43;;;;;;;;;;;7.70;99.90;;;;;;5074727;28;20398;-32
2023/10/20 11:23:12;;;;;;;;;;;7.60;99.90;;;;;;5092806;28;19924;-32
2023/10/20 11:25:40;;;;;;;;;;;7.60;99.90;;;;;;5075407;28;20211;-32
2023/10/20 11:28:07;;;;;;;;;;;7.60;99.90;;;;;;5078802;28;20022;-32
2023/10/20 11:30:35;;;;;;;;;;;7.60;99.90;;;;;;5079791;28;19947;-32
2023/10/20 11:33:04;;;;;;;;;;;7.60;99.90;;;;;;5062197;28;20325;-31
2023/10/20 11:35:30;;;;;;;;;;;7.60;99.90;;;;;;5089448;28;19925;-32
2023/10/20 11:37:57;;;;;;;;;;;7.60;99.90;;;;;;5074051;28;19924;-32
2023/10/20 11:40:26;;;;;;;;;;;7.60;99.90;;;;;;5092521;28;20012;-33
2023/10/20 11:42:53;;;;;;;;;;;7.60;99.90;;;;;;5091447;28;19924;-33
2023/10/20 11:45:20;;;;;;;;;;;7.60;99.90;;;;;;5072545;28;20004;-33
2023/10/20 11:47:47;;;;;;;;;;;7.60;99.90;;;;;;5083734;28;19958;-32
2023/10/20 11:50:15;;;;;;;;;;;7.60;99.90;;;;;;5105063;28;19931;-31
2023/10/20 11:52:42;;;;;;;;;;;7.60;99.90;;;;;;5073393;28;20097;-31
2023/10/20 11:55:09;;;;;;;;;;;7.60;99.90;;;;;;5064677;28;19992;-33
2023/10/20 11:57:37;;;;;;;;;;;7.60;99.90;;;;;;5066665;28;19947;-32
2023/10/20 12:00:07;;;;;;;;;;;7.60;99.90;;;;;;5095158;28;19939;-33
2023/10/20 12:02:34;;;;;;;;;;;7.60;99.90;;;;;;5072581;28;20341;-33
2023/10/20 12:05:01;;;;;;;;;;;7.60;99.90;;;;;;5071973;28;19938;-34
2023/10/20 12:07:27;;;;;;;;;;;7.60;99.90;;;;;;5072300;28;19981;-34
2023/10/20 12:09:54;;;;;;;;;;;7.60;99.90;;;;;;5078035;28;19960;-32
2023/10/20 12:12:20;;;;;;;;;;;7.60;99.90;;;;;;5067576;28;20414;-32
2023/10/20 12:14:48;;;;;;;;;;;7.70;99.90;;;;;;5076293;28;19924;-31
2023/10/20 12:17:15;;;;;;;;;;;7.60;99.90;;;;;;5087715;28;20026;-32
2023/10/20 12:19:42;;;;;;;;;;;7.60;99.90;;;;;;5060506;28;19995;-32
2023/10/20 12:22:09;;;;;;;;;;;7.60;99.90;;;;;;5089848;28;19924;-32
2023/10/20 12:24:36;;;;;;;;;;;7.50;99.90;;;;;;5092045;28;19965;-32
2023/10/20 12:27:03;;;;;;;;;;;7.50;99.90;;;;;;5092112;28;19925;-32
2023/10/20 12:29:30;;;;;;;;;;;7.60;99.90;;;;;;5074331;28;19924;-32
2023/10/20 12:31:58;;;;;;;;;;;7.60;99.90;;;;;;5074213;28;19999;-31
2023/10/20 12:34:25;;;;;;;;;;;7.60;99.90;;;;;;5073500;28;20029;-32
2023/10/20 12:36:51;;;;;;;;;;;7.60;99.90;;;;;;5072939;28;19959;-31
2023/10/20 12:39:19;;;;;;;;;;;7.60;99.90;;;;;;5091818;28;19977;-33
2023/10/20 12:41:46;;;;;;;;;;;7.60;99.90;;;;;;5087516;28;19957;-32
2023/10/20 12:44:13;;;;;;;;;;;7.60;99.90;;;;;;5072779;28;19992;-33
2023/10/20 12:46:40;;;;;;;;;;;7.60;99.90;;;;;;5069421;28;20012;-33
2023/10/20 12:49:08;;;;;;;;;;;7.60;99.90;;;;;;5098857;28;20379;-33
2023/10/20 12:51:35;;;;;;;;;;;7.60;99.90;;;;;;5095821;28;20003;-31
2023/10/20 12:54:03;;;;;;;;;;;7.70;99.90;;;;;;5096898;28;20394;-32
2023/10/20 12:56:30;;;;;;;;;;;7.60;99.90;;;;;;5115835;28;20027;-32
2023/10/20 12:58:57;;;;;;;;;;;7.60;99.90;;;;;;5095600;28;19958;-33
2023/10/20 13:01:23;;;;;;;;;;;7.60;99.90;;;;;;5098552;28;20299;-33
2023/10/20 13:03:50;;;;;;;;;;;7.50;99.90;;;;;;5098316;28;20429;-33
2023/10/20 13:06:18;;;;;;;;;;;7.60;99.90;;;;;;5097616;28;20359;-33
2023/10/20 13:08:46;;;;;;;;;;;7.50;99.90;;;;;;5094073;28;19944;-33
2023/10/20 13:11:12;;;;;;;;;;;7.50;99.90;;;;;;5114224;27;22319;-33
2023/10/20 13:13:39;;;;;;;;;;;7.50;99.90;;;;;;5115114;28;19942;-32
2023/10/20 13:16:06;;;;;;;;;;;7.50;99.90;;;;;;5112925;28;20011;-32
2023/10/20 13:18:33;;;;;;;;;;;7.50;99.90;;;;;;5112778;27;20344;-32
2023/10/20 13:21:01;;;;;;;;;;;7.50;99.90;;;;;;5119181;27;20387;-32
2023/10/20 13:23:29;;;;;;;;;;;7.50;99.90;;;;;;5116962;27;19948;-33
2023/10/20 13:25:58;;;;;;;;;;;7.50;99.90;;;;;;5115889;28;19928;-34
2023/10/20 13:28:25;;;;;;;;;;;7.50;99.90;;;;;;5095471;28;19931;-34
2023/10/20 13:30:59;;;;;;;;;;;7.40;99.90;;;;;;5094118;28;19932;-32
2023/10/20 13:33:26;;;;;;;;;;;7.50;99.90;;;;;;5097430;28;19958;-34
2023/10/20 13:35:54;;;;;;;;;;;7.50;99.90;;;;;;5095959;28;19954;-32
2023/10/20 13:38:20;;;;;;;;;;;7.50;99.90;;;;;;5115074;28;20074;-33
2023/10/20 13:40:49;;;;;;;;;;;7.50;99.90;;;;;;5089747;28;20032;-34
2023/10/20 13:43:16;;;;;;;;;;;7.40;99.90;;;;;;5112324;28;20374;-34
2023/10/20 13:45:42;;;;;;;;;;;7.50;99.90;;;;;;5105622;28;20423;-32
2023/10/20 13:48:09;;;;;;;;;;;7.50;99.90;;;;;;5090444;28;20001;-32
2023/10/20 13:50:39;;;;;;;;;;;7.40;99.90;;;;;;5097628;28;20055;-32
2023/10/20 13:53:09;;;;;;;;;;;7.40;99.90;;;;;;5094171;28;19924;-32
2023/10/20 13:55:36;;;;;;;;;;;7.40;99.90;;;;;;5097412;28;19972;-32
2023/10/20 13:58:04;;;;;;;;;;;7.40;99.90;;;;;;5097080;28;19991;-32
2023/10/20 14:00:33;;;;;;;;;;;7.40;99.90;;;;;;5096423;28;20041;-33
2023/10/20 14:03:00;;;;;;;;;;;7.40;99.90;;;;;;5091673;28;19947;-32
2023/10/20 14:05:29;;;;;;;;;;;7.40;99.90;;;;;;5097168;28;19930;-32
2023/10/20 14:07:57;;;;;;;;;;;7.40;99.90;;;;;;5096925;28;19972;-33
2023/10/20 14:10:23;;;;;;;;;;;7.40;99.90;;;;;;5097150;28;19967;-32
2023/10/20 14:12:50;;;;;;;;;;;7.40;99.90;;;;;;5094290;28;19995;-33
2023/10/20 14:15:18;;;;;;;;;;;7.40;99.90;;;;;;5113659;28;20332;-33
2023/10/20 14:17:45;;;;;;;;;;;7.40;99.90;;;;;;5096916;28;19923;-33
2023/10/20 14:20:12;;;;;;;;;;;7.40;99.90;;;;;;5112887;28;19991;-33
2023/10/20 14:22:39;;;;;;;;;;;7.40;99.90;;;;;;5114420;28;19982;-33
2023/10/20 14:25:06;;;;;;;;;;;7.30;99.90;;;;;;5113716;28;19956;-32
2023/10/20 14:27:33;;;;;;;;;;;7.30;99.90;;;;;;5095566;28;19931;-36
2023/10/20 14:30:00;;;;;;;;;;;7.30;99.90;;;;;;5096797;28;20285;-34
2023/10/20 14:32:28;;;;;;;;;;;7.30;99.90;;;;;;5114007;28;20059;-32
2023/10/20 14:34:55;;;;;;;;;;;7.30;99.90;;;;;;5095301;28;19958;-33
2023/10/20 14:37:21;;;;;;;;;;;7.30;99.90;;;;;;5111251;28;20026;-33
2023/10/20 14:39:48;;;;;;;;;;;7.30;99.90;;;;;;5094727;28;19928;-35
2023/10/20 14:42:15;;;;;;;;;;;7.30;99.90;;;;;;5093211;28;19970;-33
2023/10/20 14:44:42;;;;;;;;;;;7.20;99.90;;;;;;5092923;28;20052;-33
2023/10/20 14:47:08;;;;;;;;;;;7.20;99.90;;;;;;5093349;28;19999;-34
2023/10/20 14:49:37;;;;;;;;;;;7.30;99.90;;;;;;5111882;28;20053;-33
2023/10/20 14:52:04;;;;;;;;;;;7.20;99.90;;;;;;5107388;28;20268;-33